sensor_id;sensor_type;location;lat;lon;timestamp;P1;durP1;ratioP1;P2;durP2;ratioP2
37485;SDS011;23341;50.296;18.960;2023-08-24T00:01:14;6.60;;;4.90;;
37485;SDS011;23341;50.296;18.960;2023-08-24T00:06:18;9.65;;;5.25;;
37485;SDS011;23341;50.296;18.960;2023-08-24T00:11:23;5.90;;;4.88;;
37485;SDS011;23341;50.296;18.960;2023-08-24T00:16:28;7.57;;;4.85;;
37485;SDS011;23341;50.296;18.960;2023-08-24T00:21:32;7.47;;;5.35;;
37485;SDS011;23341;50.296;18.960;2023-08-24T00:26:36;8.75;;;4.72;;
37485;SDS011;23341;50.296;18.960;2023-08-24T00:31:41;8.52;;;5.40;;
37485;SDS011;23341;50.296;18.960;2023-08-24T00:36:45;6.05;;;4.50;;
37485;SDS011;23341;50.296;18.960;2023-08-24T00:41:49;9.23;;;5.40;;
37485;SDS011;23341;50.296;18.960;2023-08-24T00:46:54;8.30;;;4.50;;
37485;SDS011;23341;50.296;18.960;2023-08-24T00:51:58;6.47;;;4.95;;
37485;SDS011;23341;50.296;18.960;2023-08-24T00:57:02;6.60;;;4.72;;
37485;SDS011;23341;50.296;18.960;2023-08-24T01:02:07;12.88;;;5.35;;
37485;SDS011;23341;50.296;18.960;2023-08-24T01:07:12;8.07;;;5.28;;
37485;SDS011;23341;50.296;18.960;2023-08-24T01:12:25;12.38;;;6.00;;
37485;SDS011;23341;50.296;18.960;2023-08-24T01:17:36;7.03;;;4.97;;
37485;SDS011;23341;50.296;18.960;2023-08-24T01:22:45;11.00;;;5.03;;
37485;SDS011;23341;50.296;18.960;2023-08-24T01:27:58;11.55;;;5.15;;
37485;SDS011;23341;50.296;18.960;2023-08-24T01:33:03;8.73;;;5.40;;
37485;SDS011;23341;50.296;18.960;2023-08-24T01:38:07;8.90;;;5.35;;
37485;SDS011;23341;50.296;18.960;2023-08-24T01:43:17;7.10;;;5.20;;
37485;SDS011;23341;50.296;18.960;2023-08-24T01:48:42;6.47;;;5.20;;
37485;SDS011;23341;50.296;18.960;2023-08-24T01:53:47;6.68;;;5.43;;
37485;SDS011;23341;50.296;18.960;2023-08-24T01:58:53;8.40;;;5.22;;
37485;SDS011;23341;50.296;18.960;2023-08-24T02:03:56;7.97;;;4.68;;
37485;SDS011;23341;50.296;18.960;2023-08-24T02:09:01;10.63;;;5.28;;
37485;SDS011;23341;50.296;18.960;2023-08-24T02:14:07;6.95;;;5.63;;
37485;SDS011;23341;50.296;18.960;2023-08-24T02:19:12;11.70;;;5.57;;
37485;SDS011;23341;50.296;18.960;2023-08-24T02:24:16;8.40;;;5.72;;
37485;SDS011;23341;50.296;18.960;2023-08-24T02:29:21;7.07;;;5.60;;
37485;SDS011;23341;50.296;18.960;2023-08-24T02:34:25;8.52;;;5.28;;
37485;SDS011;23341;50.296;18.960;2023-08-24T02:39:31;7.25;;;5.38;;
37485;SDS011;23341;50.296;18.960;2023-08-24T02:44:36;6.22;;;5.40;;
37485;SDS011;23341;50.296;18.960;2023-08-24T02:49:40;8.63;;;5.18;;
37485;SDS011;23341;50.296;18.960;2023-08-24T02:54:45;10.30;;;5.68;;
37485;SDS011;23341;50.296;18.960;2023-08-24T02:59:50;6.78;;;4.63;;
37485;SDS011;23341;50.296;18.960;2023-08-24T03:10:42;7.63;;;5.05;;
37485;SDS011;23341;50.296;18.960;2023-08-24T03:15:48;8.27;;;5.13;;
37485;SDS011;23341;50.296;18.960;2023-08-24T03:20:51;8.80;;;5.30;;
37485;SDS011;23341;50.296;18.960;2023-08-24T03:25:55;10.43;;;6.10;;
37485;SDS011;23341;50.296;18.960;2023-08-24T03:31:01;8.93;;;5.80;;
37485;SDS011;23341;50.296;18.960;2023-08-24T03:36:05;10.30;;;6.20;;
37485;SDS011;23341;50.296;18.960;2023-08-24T03:41:09;16.15;;;6.13;;
37485;SDS011;23341;50.296;18.960;2023-08-24T03:46:15;13.07;;;6.53;;
37485;SDS011;23341;50.296;18.960;2023-08-24T03:51:19;8.18;;;6.40;;
37485;SDS011;23341;50.296;18.960;2023-08-24T03:56:23;7.72;;;5.95;;
37485;SDS011;23341;50.296;18.960;2023-08-24T04:01:28;9.45;;;6.70;;
37485;SDS011;23341;50.296;18.960;2023-08-24T04:06:32;7.80;;;6.72;;
37485;SDS011;23341;50.296;18.960;2023-08-24T04:11:37;13.30;;;7.28;;
37485;SDS011;23341;50.296;18.960;2023-08-24T04:16:42;11.43;;;7.18;;
37485;SDS011;23341;50.296;18.960;2023-08-24T04:21:45;10.43;;;7.05;;
37485;SDS011;23341;50.296;18.960;2023-08-24T04:26:49;12.18;;;7.15;;
37485;SDS011;23341;50.296;18.960;2023-08-24T04:31:58;10.00;;;7.50;;
37485;SDS011;23341;50.296;18.960;2023-08-24T04:37:07;11.25;;;7.15;;
37485;SDS011;23341;50.296;18.960;2023-08-24T04:42:11;9.05;;;6.50;;
37485;SDS011;23341;50.296;18.960;2023-08-24T04:47:16;13.82;;;8.05;;
37485;SDS011;23341;50.296;18.960;2023-08-24T04:52:20;13.38;;;8.93;;
37485;SDS011;23341;50.296;18.960;2023-08-24T04:57:23;14.45;;;9.60;;
37485;SDS011;23341;50.296;18.960;2023-08-24T05:02:29;19.70;;;9.13;;
37485;SDS011;23341;50.296;18.960;2023-08-24T05:07:32;17.50;;;9.63;;
37485;SDS011;23341;50.296;18.960;2023-08-24T05:12:36;17.35;;;10.27;;
37485;SDS011;23341;50.296;18.960;2023-08-24T05:17:41;15.00;;;9.95;;
37485;SDS011;23341;50.296;18.960;2023-08-24T05:22:45;13.35;;;9.05;;
37485;SDS011;23341;50.296;18.960;2023-08-24T05:27:49;16.48;;;11.75;;
37485;SDS011;23341;50.296;18.960;2023-08-24T05:32:55;17.08;;;12.05;;
37485;SDS011;23341;50.296;18.960;2023-08-24T05:37:59;16.55;;;11.95;;
37485;SDS011;23341;50.296;18.960;2023-08-24T05:43:03;13.10;;;11.77;;
37485;SDS011;23341;50.296;18.960;2023-08-24T05:48:08;15.95;;;12.77;;
37485;SDS011;23341;50.296;18.960;2023-08-24T05:53:15;21.42;;;14.10;;
37485;SDS011;23341;50.296;18.960;2023-08-24T05:58:18;26.20;;;15.40;;
37485;SDS011;23341;50.296;18.960;2023-08-24T06:03:24;23.88;;;15.07;;
37485;SDS011;23341;50.296;18.960;2023-08-24T06:08:28;16.73;;;12.55;;
37485;SDS011;23341;50.296;18.960;2023-08-24T06:13:31;19.90;;;11.60;;
37485;SDS011;23341;50.296;18.960;2023-08-24T06:18:37;19.02;;;11.85;;
37485;SDS011;23341;50.296;18.960;2023-08-24T06:23:40;18.17;;;11.65;;
37485;SDS011;23341;50.296;18.960;2023-08-24T06:28:44;14.77;;;10.70;;
37485;SDS011;23341;50.296;18.960;2023-08-24T06:33:51;19.52;;;10.80;;
37485;SDS011;23341;50.296;18.960;2023-08-24T06:38:55;16.40;;;10.10;;
37485;SDS011;23341;50.296;18.960;2023-08-24T06:44:00;11.45;;;8.40;;
37485;SDS011;23341;50.296;18.960;2023-08-24T06:49:06;21.00;;;8.70;;
37485;SDS011;23341;50.296;18.960;2023-08-24T06:54:09;12.18;;;8.00;;
37485;SDS011;23341;50.296;18.960;2023-08-24T06:59:13;12.93;;;8.60;;
37485;SDS011;23341;50.296;18.960;2023-08-24T07:04:19;10.65;;;7.07;;
37485;SDS011;23341;50.296;18.960;2023-08-24T07:09:22;12.30;;;7.93;;
37485;SDS011;23341;50.296;18.960;2023-08-24T07:14:26;11.23;;;6.90;;
37485;SDS011;23341;50.296;18.960;2023-08-24T07:19:31;11.70;;;6.65;;
37485;SDS011;23341;50.296;18.960;2023-08-24T07:24:35;14.13;;;7.30;;
37485;SDS011;23341;50.296;18.960;2023-08-24T07:29:50;10.30;;;6.65;;
37485;SDS011;23341;50.296;18.960;2023-08-24T07:34:55;14.32;;;6.72;;
37485;SDS011;23341;50.296;18.960;2023-08-24T07:40:02;13.38;;;5.88;;
37485;SDS011;23341;50.296;18.960;2023-08-24T07:45:08;12.05;;;6.88;;
37485;SDS011;23341;50.296;18.960;2023-08-24T07:50:14;13.18;;;7.32;;
37485;SDS011;23341;50.296;18.960;2023-08-24T07:55:18;14.57;;;6.55;;
37485;SDS011;23341;50.296;18.960;2023-08-24T08:00:22;11.93;;;5.30;;
37485;SDS011;23341;50.296;18.960;2023-08-24T08:05:28;9.98;;;5.30;;
37485;SDS011;23341;50.296;18.960;2023-08-24T08:10:32;13.70;;;6.10;;
37485;SDS011;23341;50.296;18.960;2023-08-24T08:15:36;13.73;;;6.90;;
37485;SDS011;23341;50.296;18.960;2023-08-24T08:20:42;13.80;;;6.05;;
37485;SDS011;23341;50.296;18.960;2023-08-24T08:25:46;9.13;;;5.65;;
37485;SDS011;23341;50.296;18.960;2023-08-24T08:30:50;8.27;;;5.18;;
37485;SDS011;23341;50.296;18.960;2023-08-24T08:35:55;11.68;;;6.45;;
37485;SDS011;23341;50.296;18.960;2023-08-24T08:41:01;12.82;;;5.55;;
37485;SDS011;23341;50.296;18.960;2023-08-24T08:46:06;9.55;;;4.05;;
37485;SDS011;23341;50.296;18.960;2023-08-24T08:51:12;5.57;;;4.38;;
37485;SDS011;23341;50.296;18.960;2023-08-24T08:56:17;5.53;;;3.47;;
37485;SDS011;23341;50.296;18.960;2023-08-24T09:01:21;4.40;;;2.90;;
37485;SDS011;23341;50.296;18.960;2023-08-24T09:06:26;8.02;;;3.67;;
37485;SDS011;23341;50.296;18.960;2023-08-24T09:11:31;5.43;;;3.08;;
37485;SDS011;23341;50.296;18.960;2023-08-24T09:16:36;3.05;;;2.60;;
37485;SDS011;23341;50.296;18.960;2023-08-24T09:21:41;7.80;;;3.13;;
37485;SDS011;23341;50.296;18.960;2023-08-24T09:26:44;4.72;;;2.55;;
37485;SDS011;23341;50.296;18.960;2023-08-24T09:31:49;7.78;;;3.28;;
37485;SDS011;23341;50.296;18.960;2023-08-24T09:36:55;6.80;;;3.05;;
37485;SDS011;23341;50.296;18.960;2023-08-24T09:42:00;7.10;;;3.42;;
37485;SDS011;23341;50.296;18.960;2023-08-24T09:47:08;7.30;;;2.83;;
37485;SDS011;23341;50.296;18.960;2023-08-24T09:52:14;4.22;;;2.60;;
37485;SDS011;23341;50.296;18.960;2023-08-24T09:57:19;2.85;;;2.42;;
37485;SDS011;23341;50.296;18.960;2023-08-24T10:02:23;5.80;;;2.90;;
37485;SDS011;23341;50.296;18.960;2023-08-24T10:07:36;6.75;;;3.33;;
37485;SDS011;23341;50.296;18.960;2023-08-24T10:12:41;3.17;;;2.78;;
37485;SDS011;23341;50.296;18.960;2023-08-24T10:17:51;3.53;;;3.00;;
37485;SDS011;23341;50.296;18.960;2023-08-24T10:22:58;4.25;;;2.65;;
37485;SDS011;23341;50.296;18.960;2023-08-24T10:28:06;7.25;;;2.83;;
37485;SDS011;23341;50.296;18.960;2023-08-24T10:33:11;6.43;;;2.83;;
37485;SDS011;23341;50.296;18.960;2023-08-24T10:38:25;6.43;;;2.53;;
37485;SDS011;23341;50.296;18.960;2023-08-24T10:43:34;7.32;;;3.28;;
37485;SDS011;23341;50.296;18.960;2023-08-24T10:54:04;6.88;;;3.05;;
37485;SDS011;23341;50.296;18.960;2023-08-24T10:59:14;4.18;;;2.60;;
37485;SDS011;23341;50.296;18.960;2023-08-24T11:04:19;3.33;;;2.75;;
37485;SDS011;23341;50.296;18.960;2023-08-24T11:09:25;5.35;;;3.15;;
37485;SDS011;23341;50.296;18.960;2023-08-24T11:14:30;4.63;;;2.92;;
37485;SDS011;23341;50.296;18.960;2023-08-24T11:19:36;5.80;;;2.58;;
37485;SDS011;23341;50.296;18.960;2023-08-24T11:24:42;3.75;;;2.50;;
37485;SDS011;23341;50.296;18.960;2023-08-24T11:29:45;3.13;;;2.40;;
37485;SDS011;23341;50.296;18.960;2023-08-24T11:34:49;4.05;;;2.60;;
37485;SDS011;23341;50.296;18.960;2023-08-24T11:39:55;3.25;;;2.33;;
37485;SDS011;23341;50.296;18.960;2023-08-24T11:44:58;3.58;;;2.60;;
37485;SDS011;23341;50.296;18.960;2023-08-24T11:50:02;2.88;;;2.50;;
37485;SDS011;23341;50.296;18.960;2023-08-24T11:55:08;3.15;;;2.58;;
37485;SDS011;23341;50.296;18.960;2023-08-24T12:00:12;4.18;;;2.58;;
37485;SDS011;23341;50.296;18.960;2023-08-24T12:05:22;6.45;;;3.10;;
37485;SDS011;23341;50.296;18.960;2023-08-24T12:10:27;4.13;;;2.42;;
37485;SDS011;23341;50.296;18.960;2023-08-24T12:15:33;8.48;;;2.40;;
37485;SDS011;23341;50.296;18.960;2023-08-24T12:20:39;2.35;;;2.08;;
37485;SDS011;23341;50.296;18.960;2023-08-24T12:25:45;5.25;;;2.90;;
37485;SDS011;23341;50.296;18.960;2023-08-24T12:30:49;2.95;;;2.38;;
37485;SDS011;23341;50.296;18.960;2023-08-24T12:35:54;3.10;;;2.45;;
37485;SDS011;23341;50.296;18.960;2023-08-24T12:41:00;2.63;;;2.40;;
37485;SDS011;23341;50.296;18.960;2023-08-24T12:46:04;42.00;;;4.95;;
37485;SDS011;23341;50.296;18.960;2023-08-24T12:51:07;4.60;;;2.47;;
37485;SDS011;23341;50.296;18.960;2023-08-24T12:56:12;4.90;;;2.95;;
37485;SDS011;23341;50.296;18.960;2023-08-24T13:01:16;7.22;;;2.70;;
37485;SDS011;23341;50.296;18.960;2023-08-24T13:06:20;3.80;;;3.05;;
37485;SDS011;23341;50.296;18.960;2023-08-24T13:11:28;3.95;;;2.83;;
37485;SDS011;23341;50.296;18.960;2023-08-24T13:16:32;7.45;;;2.83;;
37485;SDS011;23341;50.296;18.960;2023-08-24T13:21:36;3.97;;;2.75;;
37485;SDS011;23341;50.296;18.960;2023-08-24T13:26:41;6.20;;;2.83;;
37485;SDS011;23341;50.296;18.960;2023-08-24T13:31:45;4.85;;;2.40;;
37485;SDS011;23341;50.296;18.960;2023-08-24T13:36:48;6.45;;;2.95;;
37485;SDS011;23341;50.296;18.960;2023-08-24T13:41:53;3.40;;;2.67;;
37485;SDS011;23341;50.296;18.960;2023-08-24T13:46:57;3.42;;;2.22;;
37485;SDS011;23341;50.296;18.960;2023-08-24T13:52:01;4.80;;;2.67;;
37485;SDS011;23341;50.296;18.960;2023-08-24T13:57:07;4.05;;;2.25;;
37485;SDS011;23341;50.296;18.960;2023-08-24T14:02:11;3.67;;;2.30;;
37485;SDS011;23341;50.296;18.960;2023-08-24T14:07:14;3.78;;;2.40;;
37485;SDS011;23341;50.296;18.960;2023-08-24T14:12:20;5.90;;;2.83;;
37485;SDS011;23341;50.296;18.960;2023-08-24T14:17:23;2.90;;;2.60;;
37485;SDS011;23341;50.296;18.960;2023-08-24T14:22:27;3.80;;;2.35;;
37485;SDS011;23341;50.296;18.960;2023-08-24T14:27:32;3.38;;;2.17;;
37485;SDS011;23341;50.296;18.960;2023-08-24T14:32:36;2.83;;;2.50;;
37485;SDS011;23341;50.296;18.960;2023-08-24T14:37:40;4.65;;;2.83;;
37485;SDS011;23341;50.296;18.960;2023-08-24T14:42:45;5.57;;;2.70;;
37485;SDS011;23341;50.296;18.960;2023-08-24T14:47:51;5.10;;;2.60;;
37485;SDS011;23341;50.296;18.960;2023-08-24T14:52:55;2.78;;;2.58;;
37485;SDS011;23341;50.296;18.960;2023-08-24T14:58:00;4.13;;;2.30;;
37485;SDS011;23341;50.296;18.960;2023-08-24T15:03:05;4.88;;;2.90;;
37485;SDS011;23341;50.296;18.960;2023-08-24T15:08:10;4.65;;;3.22;;
37485;SDS011;23341;50.296;18.960;2023-08-24T15:13:15;5.05;;;2.92;;
37485;SDS011;23341;50.296;18.960;2023-08-24T15:18:19;4.88;;;3.45;;
37485;SDS011;23341;50.296;18.960;2023-08-24T15:23:24;7.40;;;3.15;;
37485;SDS011;23341;50.296;18.960;2023-08-24T15:28:36;3.08;;;2.75;;
37485;SDS011;23341;50.296;18.960;2023-08-24T15:33:43;4.78;;;3.10;;
37485;SDS011;23341;50.296;18.960;2023-08-24T15:44:02;7.93;;;4.20;;
37485;SDS011;23341;50.296;18.960;2023-08-24T15:49:07;6.45;;;5.38;;
37485;SDS011;23341;50.296;18.960;2023-08-24T15:54:10;5.88;;;3.20;;
37485;SDS011;23341;50.296;18.960;2023-08-24T15:59:17;3.60;;;2.90;;
37485;SDS011;23341;50.296;18.960;2023-08-24T16:04:22;9.35;;;3.53;;
37485;SDS011;23341;50.296;18.960;2023-08-24T16:09:26;5.13;;;3.17;;
37485;SDS011;23341;50.296;18.960;2023-08-24T16:14:31;4.47;;;2.90;;
37485;SDS011;23341;50.296;18.960;2023-08-24T16:19:35;2.70;;;2.33;;
37485;SDS011;23341;50.296;18.960;2023-08-24T16:24:39;4.45;;;3.47;;
37485;SDS011;23341;50.296;18.960;2023-08-24T16:29:44;5.53;;;3.28;;
37485;SDS011;23341;50.296;18.960;2023-08-24T16:34:48;6.68;;;3.45;;
37485;SDS011;23341;50.296;18.960;2023-08-24T16:39:52;4.40;;;4.00;;
37485;SDS011;23341;50.296;18.960;2023-08-24T16:44:57;6.25;;;4.28;;
37485;SDS011;23341;50.296;18.960;2023-08-24T16:50:01;3.42;;;3.08;;
37485;SDS011;23341;50.296;18.960;2023-08-24T16:55:05;6.72;;;3.88;;
37485;SDS011;23341;50.296;18.960;2023-08-24T17:00:12;4.57;;;2.97;;
37485;SDS011;23341;50.296;18.960;2023-08-24T17:05:16;5.88;;;4.28;;
37485;SDS011;23341;50.296;18.960;2023-08-24T17:10:20;8.25;;;3.50;;
37485;SDS011;23341;50.296;18.960;2023-08-24T17:15:26;6.03;;;3.45;;
37485;SDS011;23341;50.296;18.960;2023-08-24T17:20:31;6.85;;;3.90;;
37485;SDS011;23341;50.296;18.960;2023-08-24T17:25:40;7.53;;;3.53;;
37485;SDS011;23341;50.296;18.960;2023-08-24T17:30:48;8.73;;;4.10;;
37485;SDS011;23341;50.296;18.960;2023-08-24T17:35:55;5.38;;;3.72;;
37485;SDS011;23341;50.296;18.960;2023-08-24T17:41:02;8.23;;;4.50;;
37485;SDS011;23341;50.296;18.960;2023-08-24T17:46:11;5.15;;;3.90;;
37485;SDS011;23341;50.296;18.960;2023-08-24T17:51:15;11.60;;;4.43;;
37485;SDS011;23341;50.296;18.960;2023-08-24T17:56:19;6.20;;;3.97;;
37485;SDS011;23341;50.296;18.960;2023-08-24T18:01:26;9.38;;;5.28;;
37485;SDS011;23341;50.296;18.960;2023-08-24T18:06:30;13.07;;;4.93;;
37485;SDS011;23341;50.296;18.960;2023-08-24T18:11:34;8.20;;;6.00;;
37485;SDS011;23341;50.296;18.960;2023-08-24T18:16:40;6.25;;;5.57;;
37485;SDS011;23341;50.296;18.960;2023-08-24T18:21:44;13.15;;;8.77;;
37485;SDS011;23341;50.296;18.960;2023-08-24T18:26:52;10.68;;;9.32;;
37485;SDS011;23341;50.296;18.960;2023-08-24T18:32:03;14.32;;;9.38;;
37485;SDS011;23341;50.296;18.960;2023-08-24T18:37:32;10.38;;;9.27;;
37485;SDS011;23341;50.296;18.960;2023-08-24T18:42:40;10.68;;;9.27;;
37485;SDS011;23341;50.296;18.960;2023-08-24T18:47:49;7.50;;;5.55;;
37485;SDS011;23341;50.296;18.960;2023-08-24T18:52:56;9.60;;;4.85;;
37485;SDS011;23341;50.296;18.960;2023-08-24T18:58:04;13.50;;;7.72;;
37485;SDS011;23341;50.296;18.960;2023-08-24T19:03:10;6.28;;;5.68;;
37485;SDS011;23341;50.296;18.960;2023-08-24T19:08:16;7.57;;;5.72;;
37485;SDS011;23341;50.296;18.960;2023-08-24T19:13:20;7.38;;;5.93;;
37485;SDS011;23341;50.296;18.960;2023-08-24T19:18:26;5.75;;;5.13;;
37485;SDS011;23341;50.296;18.960;2023-08-24T19:23:30;7.53;;;5.68;;
37485;SDS011;23341;50.296;18.960;2023-08-24T19:28:37;5.68;;;4.85;;
37485;SDS011;23341;50.296;18.960;2023-08-24T19:33:44;7.90;;;5.03;;
37485;SDS011;23341;50.296;18.960;2023-08-24T19:38:48;5.32;;;4.80;;
37485;SDS011;23341;50.296;18.960;2023-08-24T19:43:52;6.82;;;4.50;;
37485;SDS011;23341;50.296;18.960;2023-08-24T19:48:58;8.82;;;4.70;;
37485;SDS011;23341;50.296;18.960;2023-08-24T19:54:04;9.85;;;5.03;;
37485;SDS011;23341;50.296;18.960;2023-08-24T19:59:09;6.03;;;4.97;;
37485;SDS011;23341;50.296;18.960;2023-08-24T20:04:18;5.63;;;5.05;;
37485;SDS011;23341;50.296;18.960;2023-08-24T20:09:22;9.75;;;5.28;;
37485;SDS011;23341;50.296;18.960;2023-08-24T20:14:26;11.30;;;5.22;;
37485;SDS011;23341;50.296;18.960;2023-08-24T20:19:31;6.13;;;5.30;;
37485;SDS011;23341;50.296;18.960;2023-08-24T20:24:37;12.70;;;5.68;;
37485;SDS011;23341;50.296;18.960;2023-08-24T20:29:41;11.43;;;5.70;;
37485;SDS011;23341;50.296;18.960;2023-08-24T20:34:47;10.13;;;5.80;;
37485;SDS011;23341;50.296;18.960;2023-08-24T20:39:51;9.85;;;6.57;;
37485;SDS011;23341;50.296;18.960;2023-08-24T20:44:55;10.40;;;6.00;;
37485;SDS011;23341;50.296;18.960;2023-08-24T20:50:00;13.38;;;6.65;;
37485;SDS011;23341;50.296;18.960;2023-08-24T20:55:05;12.68;;;6.32;;
37485;SDS011;23341;50.296;18.960;2023-08-24T21:00:09;11.98;;;7.20;;
37485;SDS011;23341;50.296;18.960;2023-08-24T21:05:15;12.63;;;7.30;;
37485;SDS011;23341;50.296;18.960;2023-08-24T21:10:19;8.85;;;7.10;;
37485;SDS011;23341;50.296;18.960;2023-08-24T21:15:23;13.35;;;7.95;;
37485;SDS011;23341;50.296;18.960;2023-08-24T21:20:28;13.50;;;7.10;;
37485;SDS011;23341;50.296;18.960;2023-08-24T21:25:31;14.98;;;7.82;;
37485;SDS011;23341;50.296;18.960;2023-08-24T21:30:35;10.52;;;7.25;;
37485;SDS011;23341;50.296;18.960;2023-08-24T21:35:41;13.93;;;7.93;;
37485;SDS011;23341;50.296;18.960;2023-08-24T21:40:44;9.90;;;8.02;;
37485;SDS011;23341;50.296;18.960;2023-08-24T21:45:53;20.98;;;8.90;;
37485;SDS011;23341;50.296;18.960;2023-08-24T21:50:59;11.73;;;7.60;;
37485;SDS011;23341;50.296;18.960;2023-08-24T21:56:03;12.25;;;8.27;;
37485;SDS011;23341;50.296;18.960;2023-08-24T22:01:08;11.00;;;7.72;;
37485;SDS011;23341;50.296;18.960;2023-08-24T22:06:13;12.13;;;7.90;;
37485;SDS011;23341;50.296;18.960;2023-08-24T22:11:17;12.93;;;7.78;;
37485;SDS011;23341;50.296;18.960;2023-08-24T22:16:25;10.88;;;8.52;;
37485;SDS011;23341;50.296;18.960;2023-08-24T22:21:31;15.53;;;8.20;;
37485;SDS011;23341;50.296;18.960;2023-08-24T22:26:34;14.82;;;7.60;;
37485;SDS011;23341;50.296;18.960;2023-08-24T22:31:38;11.18;;;7.57;;
37485;SDS011;23341;50.296;18.960;2023-08-24T22:36:45;16.75;;;8.02;;
37485;SDS011;23341;50.296;18.960;2023-08-24T22:41:49;11.43;;;8.32;;
37485;SDS011;23341;50.296;18.960;2023-08-24T22:46:53;10.38;;;6.72;;
37485;SDS011;23341;50.296;18.960;2023-08-24T22:51:58;13.57;;;8.27;;
37485;SDS011;23341;50.296;18.960;2023-08-24T22:57:02;8.65;;;7.32;;
37485;SDS011;23341;50.296;18.960;2023-08-24T23:02:06;16.70;;;8.75;;
37485;SDS011;23341;50.296;18.960;2023-08-24T23:07:11;9.68;;;8.68;;
37485;SDS011;23341;50.296;18.960;2023-08-24T23:12:15;14.10;;;8.13;;
37485;SDS011;23341;50.296;18.960;2023-08-24T23:17:23;12.82;;;8.13;;
37485;SDS011;23341;50.296;18.960;2023-08-24T23:22:29;15.63;;;8.52;;
37485;SDS011;23341;50.296;18.960;2023-08-24T23:27:33;11.90;;;7.90;;
37485;SDS011;23341;50.296;18.960;2023-08-24T23:32:37;10.32;;;7.97;;
37485;SDS011;23341;50.296;18.960;2023-08-24T23:37:42;10.82;;;7.95;;
37485;SDS011;23341;50.296;18.960;2023-08-24T23:42:46;12.48;;;8.52;;
37485;SDS011;23341;50.296;18.960;2023-08-24T23:47:50;11.65;;;7.97;;
37485;SDS011;23341;50.296;18.960;2023-08-24T23:52:55;15.25;;;7.80;;
37485;SDS011;23341;50.296;18.960;2023-08-24T23:57:59;13.98;;;8.32;;
